createdAt,value
2019-03-10T00:00:32.216Z,16.27
2019-03-10T00:03:01.484Z,15.50
2019-03-10T00:05:30.686Z,14.63
2019-03-10T00:08:00.506Z,11.90
2019-03-10T00:10:29.692Z,14.40
2019-03-10T00:12:59.084Z,11.87
2019-03-10T00:15:28.213Z,13.17
2019-03-10T00:17:57.485Z,10.10
2019-03-10T00:20:26.758Z,12.97
2019-03-10T00:22:56.009Z,11.97
2019-03-10T00:25:25.193Z,15.37
2019-03-10T00:27:54.503Z,17.07
2019-03-10T00:30:23.913Z,13.43
2019-03-10T00:32:53.079Z,11.60
2019-03-10T00:35:22.254Z,12.77
2019-03-10T00:37:51.434Z,11.70
2019-03-10T00:40:46.253Z,10.83
2019-03-10T00:43:50.542Z,14.03
2019-03-10T00:46:45.760Z,15.30
2019-03-10T00:49:33.311Z,13.73
2019-03-10T00:52:07.755Z,13.40
2019-03-10T00:54:36.950Z,11.43
2019-03-10T00:57:06.133Z,12.57
2019-03-10T00:59:35.302Z,11.57
2019-03-10T01:02:04.573Z,9.90
2019-03-10T01:04:33.761Z,17.83
2019-03-10T01:07:02.998Z,9.93
2019-03-10T01:09:32.176Z,11.53
2019-03-10T01:12:02.935Z,12.17
2019-03-10T01:14:32.728Z,16.03
2019-03-10T01:17:03.759Z,14.93
2019-03-10T01:19:33.483Z,11.27
2019-03-10T01:22:02.743Z,11.23
2019-03-10T01:24:31.919Z,15.67
2019-03-10T01:27:01.967Z,11.43
2019-03-10T01:29:31.151Z,15.10
2019-03-10T01:32:24.381Z,14.00
2019-03-10T01:35:05.109Z,20.93
2019-03-10T01:37:34.302Z,17.70
2019-03-10T01:40:03.969Z,10.43
2019-03-10T01:42:33.166Z,12.70
2019-03-10T01:45:02.344Z,17.20
2019-03-10T01:47:31.539Z,17.77
2019-03-10T01:50:00.726Z,17.03
2019-03-10T01:52:29.911Z,14.43
2019-03-10T01:54:59.113Z,17.43
2019-03-10T01:57:28.286Z,18.30
2019-03-10T01:59:57.449Z,15.73
2019-03-10T02:02:26.933Z,16.43
2019-03-10T02:04:56.111Z,15.43
2019-03-10T02:07:25.343Z,22.20
2019-03-10T02:09:54.485Z,17.70
2019-03-10T02:12:23.667Z,16.70
2019-03-10T02:14:52.865Z,21.80
2019-03-10T02:17:22.043Z,21.03
2019-03-10T02:19:51.267Z,20.80
2019-03-10T02:22:20.463Z,15.30
2019-03-10T02:24:49.639Z,17.97
2019-03-10T02:27:36.521Z,18.63
2019-03-10T02:30:14.921Z,15.93
2019-03-10T02:32:44.101Z,22.27
2019-03-10T02:35:13.349Z,22.87
2019-03-10T02:37:42.616Z,16.50
2019-03-10T02:40:12.345Z,24.80
2019-03-10T02:42:41.670Z,19.10
2019-03-10T02:45:11.379Z,18.30
2019-03-10T02:47:40.560Z,20.60
2019-03-10T02:50:10.708Z,26.70
2019-03-10T02:52:39.918Z,23.67
2019-03-10T02:55:09.425Z,18.07
2019-03-10T02:57:38.612Z,20.60
2019-03-10T03:00:10.726Z,20.47
2019-03-10T03:02:39.929Z,23.93
2019-03-10T03:05:10.717Z,27.40
2019-03-10T03:07:39.924Z,15.90
2019-03-10T03:10:13.769Z,20.63
2019-03-10T03:12:42.961Z,25.47
2019-03-10T03:15:12.277Z,19.47
2019-03-10T03:17:41.526Z,22.03
2019-03-10T03:20:12.438Z,19.57
2019-03-10T03:22:41.726Z,20.70
2019-03-10T03:25:12.169Z,18.07
2019-03-10T03:27:41.679Z,21.17
2019-03-10T03:30:16.015Z,12.53
2019-03-10T03:32:45.257Z,17.83
2019-03-10T03:35:46.878Z,14.10
2019-03-10T03:38:36.881Z,14.23
2019-03-10T03:41:20.102Z,18.57
2019-03-10T03:43:49.293Z,20.27
2019-03-10T03:46:18.463Z,9.87
2019-03-10T03:48:47.665Z,12.83
2019-03-10T03:51:16.891Z,9.53
2019-03-10T03:53:46.067Z,8.40
2019-03-10T03:56:17.668Z,14.87
2019-03-10T03:58:46.842Z,13.73
2019-03-10T04:01:20.132Z,9.50
2019-03-10T04:03:49.296Z,15.43
2019-03-10T04:06:18.488Z,14.40
2019-03-10T04:08:49.877Z,8.80
2019-03-10T04:11:19.054Z,13.13
2019-03-10T04:13:48.157Z,18.33
2019-03-10T04:16:17.337Z,11.37
2019-03-10T04:18:46.509Z,7.93
2019-03-10T04:21:15.701Z,12.43
2019-03-10T04:23:44.888Z,13.40
2019-03-10T04:26:14.053Z,13.83
2019-03-10T04:28:43.248Z,11.13
2019-03-10T04:31:12.449Z,10.23
2019-03-10T04:33:41.806Z,11.23
2019-03-10T04:36:10.995Z,15.60
2019-03-10T04:38:40.252Z,10.77
2019-03-10T04:41:09.408Z,11.33
2019-03-10T04:43:38.581Z,13.77
2019-03-10T04:46:07.794Z,9.87
2019-03-10T04:48:36.969Z,7.40
2019-03-10T04:51:06.146Z,9.13
2019-03-10T04:53:35.326Z,9.23
2019-03-10T04:56:11.885Z,11.47
2019-03-10T04:58:42.719Z,8.10
2019-03-10T05:01:15.849Z,13.33
2019-03-10T05:03:45.067Z,10.23
2019-03-10T05:06:14.252Z,14.00
2019-03-10T05:08:43.425Z,10.87
2019-03-10T05:11:12.608Z,11.03
2019-03-10T05:13:41.791Z,9.37
2019-03-10T05:16:10.985Z,13.93
2019-03-10T05:18:40.165Z,14.63
2019-03-10T05:21:09.259Z,13.90
2019-03-10T05:23:40.182Z,11.50
2019-03-10T05:26:09.625Z,9.93
2019-03-10T05:28:41.847Z,9.73
2019-03-10T05:31:11.048Z,9.30
2019-03-10T05:33:40.225Z,10.57
2019-03-10T05:36:09.401Z,11.37
2019-03-10T05:38:38.581Z,8.40
2019-03-10T05:41:07.786Z,11.87
2019-03-10T05:43:36.973Z,8.03
2019-03-10T05:46:06.210Z,11.77
2019-03-10T05:48:35.381Z,7.00
2019-03-10T05:51:04.596Z,12.30
2019-03-10T05:53:33.795Z,10.10
2019-03-10T05:56:02.981Z,12.80
2019-03-10T05:58:32.145Z,14.57
2019-03-10T06:01:01.312Z,13.23
2019-03-10T06:03:30.499Z,9.03
2019-03-10T06:05:59.780Z,8.70
2019-03-10T06:08:28.950Z,14.27
2019-03-10T06:10:58.136Z,11.90
2019-03-10T06:13:27.429Z,13.93
2019-03-10T06:15:56.703Z,10.20
2019-03-10T06:18:25.886Z,11.00
2019-03-10T06:20:55.089Z,9.10
2019-03-10T06:23:24.259Z,9.43
2019-03-10T06:25:53.431Z,9.47
2019-03-10T06:28:22.601Z,10.20
2019-03-10T06:30:51.781Z,7.90
2019-03-10T06:33:20.983Z,15.97
2019-03-10T06:35:50.212Z,8.03
2019-03-10T06:38:19.407Z,15.50
2019-03-10T06:40:48.511Z,12.70
2019-03-10T06:43:17.697Z,8.83
2019-03-10T06:45:46.876Z,12.70
2019-03-10T06:48:16.045Z,9.47
2019-03-10T06:50:45.246Z,13.00
2019-03-10T06:53:14.434Z,10.30
2019-03-10T06:55:43.639Z,12.00
2019-03-10T06:58:12.823Z,14.70
2019-03-10T07:00:41.993Z,15.13
2019-03-10T07:03:11.194Z,12.60
2019-03-10T07:05:40.374Z,10.10
2019-03-10T07:08:09.563Z,10.03
2019-03-10T07:10:38.728Z,10.90
2019-03-10T07:13:07.930Z,9.13
2019-03-10T07:15:37.118Z,10.30
2019-03-10T07:18:06.288Z,8.10
2019-03-10T07:20:35.486Z,8.77
2019-03-10T07:23:06.296Z,7.53
2019-03-10T07:25:35.454Z,7.30
2019-03-10T07:28:15.099Z,7.93
2019-03-10T07:30:48.847Z,9.83
2019-03-10T07:33:31.960Z,10.77
2019-03-10T07:36:12.066Z,10.93
2019-03-10T07:38:57.840Z,8.40
2019-03-10T07:41:28.658Z,11.47
2019-03-10T07:44:15.781Z,8.80
2019-03-10T07:46:49.462Z,7.70
2019-03-10T07:49:32.140Z,9.43
2019-03-10T07:52:05.918Z,6.87
2019-03-10T07:54:36.728Z,5.43
2019-03-10T07:57:22.582Z,6.30
2019-03-10T07:59:53.411Z,9.80
2019-03-10T08:02:42.319Z,7.07
2019-03-10T08:05:37.206Z,7.70
2019-03-10T08:08:08.016Z,9.97
2019-03-10T08:10:51.062Z,8.37
2019-03-10T08:13:37.990Z,8.37
2019-03-10T08:16:24.831Z,8.63
2019-03-10T08:19:01.108Z,7.13
2019-03-10T08:21:40.830Z,10.50
2019-03-10T08:24:11.656Z,8.83
2019-03-10T08:27:00.751Z,8.03
2019-03-10T08:29:31.556Z,6.60
2019-03-10T08:32:02.378Z,6.20
2019-03-10T08:34:49.306Z,6.83
2019-03-10T08:37:36.610Z,6.27
2019-03-10T08:40:19.781Z,7.90
2019-03-10T08:43:07.039Z,7.07
2019-03-10T08:45:37.838Z,5.10
2019-03-10T08:48:08.648Z,7.60
2019-03-10T08:50:42.479Z,5.37
2019-03-10T08:53:13.305Z,5.50
2019-03-10T08:55:58.913Z,4.40
2019-03-10T08:58:29.832Z,4.43
2019-03-10T09:01:00.678Z,7.40
2019-03-10T09:03:31.495Z,3.33
2019-03-10T09:06:14.332Z,4.40
2019-03-10T09:08:57.176Z,5.67
2019-03-10T09:11:30.988Z,6.13
2019-03-10T09:14:01.836Z,3.17
2019-03-10T09:16:48.911Z,4.13
2019-03-10T09:19:25.214Z,3.90
2019-03-10T09:22:01.947Z,4.83
2019-03-10T09:24:48.944Z,5.00
2019-03-10T09:27:22.737Z,5.03
2019-03-10T09:30:09.750Z,8.13
2019-03-10T09:32:52.656Z,6.40
2019-03-10T09:35:38.251Z,9.47
2019-03-10T09:38:15.019Z,9.27
2019-03-10T09:40:48.730Z,11.67
2019-03-10T09:43:19.557Z,11.20
2019-03-10T09:45:50.298Z,11.10
2019-03-10T09:48:29.920Z,14.87
2019-03-10T09:51:09.663Z,20.70
2019-03-10T09:53:40.492Z,21.73
2019-03-10T09:56:17.284Z,16.70
2019-03-10T09:58:57.189Z,18.57
2019-03-10T10:01:42.966Z,30.30
2019-03-10T10:04:16.714Z,31.97
2019-03-10T10:06:53.315Z,45.20
2019-03-10T10:09:24.149Z,47.07
2019-03-10T10:12:00.591Z,53.63
2019-03-10T10:14:31.418Z,48.00
2019-03-10T10:17:07.989Z,56.03
2019-03-10T10:19:47.644Z,51.77
2019-03-10T10:22:23.990Z,47.60
2019-03-10T10:25:03.792Z,64.67
2019-03-10T10:27:37.240Z,54.60
2019-03-10T10:30:29.534Z,46.30
2019-03-10T10:33:00.359Z,55.37
2019-03-10T10:35:37.017Z,61.63
2019-03-10T10:38:18.675Z,58.20
2019-03-10T10:40:59.895Z,45.23
2019-03-10T10:43:39.720Z,59.90
2019-03-10T10:46:16.923Z,60.07
2019-03-10T10:48:50.583Z,61.37
2019-03-10T10:51:29.715Z,62.87
2019-03-10T10:54:00.123Z,64.47
2019-03-10T10:56:30.972Z,60.83
2019-03-10T10:59:07.726Z,51.47
2019-03-10T11:01:41.039Z,64.60
2019-03-10T11:04:17.738Z,58.87
2019-03-10T11:07:06.121Z,69.10
2019-03-10T11:09:43.193Z,61.50
2019-03-10T11:12:19.855Z,66.73
2019-03-10T11:14:53.847Z,58.37
2019-03-10T11:17:42.945Z,54.03
2019-03-10T11:20:13.855Z,50.87
2019-03-10T11:22:47.610Z,57.13
2019-03-10T11:25:24.343Z,50.83
2019-03-10T11:27:55.179Z,46.43
2019-03-10T11:30:42.591Z,39.93
2019-03-10T11:33:22.247Z,34.40
2019-03-10T11:35:53.666Z,38.80
2019-03-10T11:38:42.902Z,25.90
2019-03-10T11:41:16.716Z,30.43
2019-03-10T11:44:17.044Z,27.00
2019-03-10T11:46:48.142Z,45.53
2019-03-10T11:49:22.535Z,34.37
2019-03-10T11:52:02.100Z,31.27
2019-03-10T11:54:36.977Z,38.90
2019-03-10T11:57:16.779Z,16.43
2019-03-10T11:59:50.471Z,26.27
2019-03-10T12:02:26.973Z,13.00
2019-03-10T12:05:00.598Z,13.30
2019-03-10T12:08:05.005Z,27.07
2019-03-10T12:10:34.205Z,17.60
2019-03-10T12:13:03.387Z,12.23
2019-03-10T12:15:32.568Z,13.60
2019-03-10T12:18:01.750Z,16.03
2019-03-10T12:20:30.938Z,13.67
2019-03-10T12:23:00.203Z,21.43
2019-03-10T12:25:29.440Z,23.80
2019-03-10T12:27:58.613Z,18.47
2019-03-10T12:30:27.777Z,18.37
2019-03-10T12:32:56.968Z,16.77
2019-03-10T12:35:34.036Z,17.57
2019-03-10T12:37:57.037Z,13.40
2019-03-10T12:40:26.272Z,21.33
2019-03-10T12:42:55.441Z,15.50
2019-03-10T12:45:24.628Z,16.60
2019-03-10T12:47:53.854Z,17.27
2019-03-10T12:50:23.159Z,11.30
2019-03-10T12:52:52.344Z,17.07
2019-03-10T12:55:21.511Z,13.33
2019-03-10T12:57:50.696Z,12.60
2019-03-10T13:00:19.952Z,10.73
2019-03-10T13:02:49.238Z,10.77
2019-03-10T13:05:18.414Z,13.33
2019-03-10T13:07:47.603Z,12.40
2019-03-10T13:10:16.775Z,14.23
2019-03-10T13:12:45.977Z,8.17
2019-03-10T13:15:15.256Z,14.97
2019-03-10T13:17:44.424Z,11.13
2019-03-10T13:20:13.832Z,5.33
2019-03-10T13:22:43.171Z,6.33
2019-03-10T13:25:13.314Z,3.63
2019-03-10T13:27:42.577Z,7.77
2019-03-10T13:30:14.559Z,3.17
2019-03-10T13:32:44.661Z,3.50
2019-03-10T13:35:14.339Z,2.70
2019-03-10T13:37:43.596Z,5.23
2019-03-10T13:40:14.667Z,3.27
2019-03-10T13:43:01.848Z,6.23
2019-03-10T13:45:31.054Z,6.27
2019-03-10T13:48:00.272Z,2.87
2019-03-10T13:50:29.474Z,2.57
2019-03-10T13:52:58.647Z,2.43
2019-03-10T13:55:27.831Z,2.43
2019-03-10T13:57:57.023Z,4.60
2019-03-10T14:00:26.835Z,2.80
2019-03-10T14:02:56.107Z,1.80
2019-03-10T14:05:25.456Z,3.97
2019-03-10T14:07:54.649Z,1.83
2019-03-10T14:10:23.822Z,4.73
2019-03-10T14:12:53.077Z,5.63
2019-03-10T14:15:22.345Z,1.90
2019-03-10T14:17:51.540Z,2.67
2019-03-10T14:20:20.874Z,3.17
2019-03-10T14:22:50.038Z,3.77
2019-03-10T14:25:19.294Z,3.17
2019-03-10T14:27:48.488Z,0.70
2019-03-10T14:30:18.804Z,2.23
2019-03-10T14:32:48.238Z,2.33
2019-03-10T14:35:17.777Z,2.00
2019-03-10T14:37:46.962Z,3.20
2019-03-10T14:40:17.686Z,4.23
2019-03-10T14:42:46.896Z,1.83
2019-03-10T14:45:17.621Z,2.43
2019-03-10T14:47:46.983Z,3.17
2019-03-10T14:50:19.680Z,3.70
2019-03-10T14:52:48.941Z,0.93
2019-03-10T14:55:19.572Z,3.63
2019-03-10T14:57:48.773Z,2.70
2019-03-10T15:00:28.613Z,2.70
2019-03-10T15:02:57.812Z,3.57
2019-03-10T15:05:27.009Z,4.03
2019-03-10T15:07:56.171Z,2.20
2019-03-10T15:10:25.355Z,1.60
2019-03-10T15:12:54.535Z,1.53
2019-03-10T15:15:23.848Z,4.20
2019-03-10T15:17:53.908Z,2.83
2019-03-10T15:20:23.150Z,5.37
2019-03-10T15:22:52.344Z,1.40
2019-03-10T15:25:24.943Z,3.50
2019-03-10T15:27:53.626Z,1.80
2019-03-10T15:30:24.360Z,1.87
2019-03-10T15:32:53.679Z,1.97
2019-03-10T15:35:22.975Z,0.73
2019-03-10T15:37:52.153Z,1.30
2019-03-10T15:40:21.378Z,1.00
2019-03-10T15:42:50.552Z,3.37
2019-03-10T15:45:20.049Z,1.70
2019-03-10T15:47:49.235Z,3.40
2019-03-10T15:50:26.485Z,1.27
2019-03-10T15:52:55.774Z,2.87
2019-03-10T15:55:24.937Z,3.03
2019-03-10T15:57:54.184Z,4.57
2019-03-10T16:00:28.177Z,1.50
2019-03-10T16:02:57.458Z,2.87
2019-03-10T16:05:26.964Z,6.93
2019-03-10T16:07:56.210Z,7.23
2019-03-10T16:10:25.396Z,1.90
2019-03-10T16:12:54.561Z,3.00
2019-03-10T16:15:25.888Z,4.57
2019-03-10T16:17:55.210Z,3.50
2019-03-10T16:20:24.390Z,4.30
2019-03-10T16:22:55.346Z,5.70
2019-03-10T16:25:24.431Z,5.17
2019-03-10T16:27:53.624Z,4.80
2019-03-10T16:30:25.215Z,7.40
2019-03-10T16:32:54.470Z,5.17
2019-03-10T16:35:23.706Z,7.67
2019-03-10T16:37:52.913Z,6.47
2019-03-10T16:40:22.902Z,13.63
2019-03-10T16:42:52.081Z,8.80
2019-03-10T16:45:22.187Z,2.93
2019-03-10T16:47:51.351Z,3.73
2019-03-10T16:50:24.702Z,7.60
2019-03-10T16:52:53.926Z,4.30
2019-03-10T16:55:23.091Z,7.10
2019-03-10T16:57:52.377Z,4.30
2019-03-10T17:00:21.773Z,7.63
2019-03-10T17:03:09.208Z,4.43
2019-03-10T17:05:38.455Z,4.00
2019-03-10T17:08:07.622Z,7.17
2019-03-10T17:10:36.786Z,6.57
2019-03-10T17:13:05.978Z,12.77
2019-03-10T17:15:35.208Z,6.13
2019-03-10T17:18:04.473Z,9.73
2019-03-10T17:20:33.652Z,8.50
2019-03-10T17:23:02.820Z,4.83
2019-03-10T17:25:31.993Z,4.57
2019-03-10T17:28:01.168Z,10.23
2019-03-10T17:30:30.368Z,9.03
2019-03-10T17:32:59.525Z,6.13
2019-03-10T17:35:28.698Z,8.70
2019-03-10T17:37:57.870Z,10.67
2019-03-10T17:40:27.052Z,11.80
2019-03-10T17:43:14.339Z,7.47
2019-03-10T17:45:43.587Z,11.70
2019-03-10T17:48:13.242Z,9.17
2019-03-10T17:50:42.618Z,13.10
2019-03-10T17:53:11.851Z,10.57
2019-03-10T17:55:41.038Z,11.73
2019-03-10T17:58:10.255Z,10.33
2019-03-10T18:00:40.301Z,5.47
2019-03-10T18:03:09.469Z,6.20
2019-03-10T18:05:38.679Z,8.43
2019-03-10T18:08:07.930Z,15.80
2019-03-10T18:10:37.119Z,6.70
2019-03-10T18:13:06.640Z,11.27
2019-03-10T18:15:35.840Z,7.30
2019-03-10T18:18:05.113Z,10.17
2019-03-10T18:20:34.287Z,5.63
2019-03-10T18:23:03.471Z,5.53
2019-03-10T18:25:32.649Z,2.80
2019-03-10T18:28:02.393Z,2.17
2019-03-10T18:30:31.567Z,4.97
2019-03-10T18:33:00.737Z,4.33
2019-03-10T18:35:29.983Z,3.57
2019-03-10T18:37:59.177Z,10.57
2019-03-10T18:40:28.995Z,11.23
2019-03-10T18:42:58.258Z,7.40
2019-03-10T18:45:27.429Z,6.73
2019-03-10T18:47:56.618Z,4.30
2019-03-10T18:50:27.599Z,7.33
2019-03-10T18:52:56.766Z,8.60
2019-03-10T18:55:25.957Z,8.17
2019-03-10T18:57:55.133Z,13.70
2019-03-10T19:00:25.638Z,7.17
2019-03-10T19:02:54.898Z,12.50
2019-03-10T19:05:24.079Z,11.00
2019-03-10T19:07:53.334Z,10.40
2019-03-10T19:10:22.513Z,11.00
2019-03-10T19:12:51.695Z,14.50
2019-03-10T19:15:25.134Z,8.70
2019-03-10T19:17:54.617Z,10.93
2019-03-10T19:20:23.852Z,10.93
2019-03-10T19:22:53.043Z,10.93
2019-03-10T19:25:22.214Z,19.90
2019-03-10T19:27:51.390Z,11.80
2019-03-10T19:30:22.447Z,10.90
2019-03-10T19:32:51.703Z,11.97
2019-03-10T19:35:20.950Z,13.97
2019-03-10T19:37:50.136Z,8.20
2019-03-10T19:40:37.677Z,8.80
2019-03-10T19:43:25.042Z,10.47
2019-03-10T19:45:54.214Z,8.07
2019-03-10T19:48:23.518Z,7.03
2019-03-10T19:51:10.866Z,12.70
2019-03-10T19:53:41.352Z,11.23
2019-03-10T19:56:10.513Z,7.27
2019-03-10T19:58:39.737Z,12.47
2019-03-10T20:01:08.909Z,6.87
2019-03-10T20:03:38.105Z,7.07
2019-03-10T20:06:07.298Z,17.17
2019-03-10T20:08:36.471Z,6.93
2019-03-10T20:11:05.669Z,6.30
2019-03-10T20:13:34.837Z,5.63
2019-03-10T20:16:04.056Z,8.17
2019-03-10T20:18:33.234Z,9.07
2019-03-10T20:21:02.431Z,8.00
2019-03-10T20:23:31.598Z,6.23
2019-03-10T20:26:00.774Z,3.07
2019-03-10T20:28:29.982Z,7.43
2019-03-10T20:30:59.108Z,7.93
2019-03-10T20:33:28.287Z,2.47
2019-03-10T20:35:57.467Z,13.43
2019-03-10T20:38:28.148Z,6.93
2019-03-10T20:40:57.347Z,8.87
2019-03-10T20:43:26.516Z,3.27
2019-03-10T20:45:55.726Z,6.83
2019-03-10T20:48:24.893Z,5.37
2019-03-10T20:50:54.123Z,7.77
2019-03-10T20:53:23.301Z,7.40
2019-03-10T20:55:52.463Z,11.67
2019-03-10T20:58:21.659Z,6.53
2019-03-10T21:00:50.834Z,5.17
2019-03-10T21:03:20.001Z,7.20
2019-03-10T21:05:49.181Z,8.60
2019-03-10T21:08:18.383Z,7.90
2019-03-10T21:10:47.579Z,7.67
2019-03-10T21:13:16.778Z,8.17
2019-03-10T21:15:45.958Z,7.73
2019-03-10T21:18:15.138Z,8.47
2019-03-10T21:20:44.340Z,8.50
2019-03-10T21:23:13.528Z,3.37
2019-03-10T21:25:42.708Z,8.23
2019-03-10T21:28:11.882Z,9.17
2019-03-10T21:30:41.081Z,10.13
2019-03-10T21:33:10.297Z,5.40
2019-03-10T21:35:39.482Z,10.33
2019-03-10T21:38:08.650Z,8.47
2019-03-10T21:40:55.964Z,8.50
2019-03-10T21:43:43.113Z,9.53
2019-03-10T21:46:12.272Z,8.57
2019-03-10T21:48:41.452Z,5.10
2019-03-10T21:51:10.701Z,10.00
2019-03-10T21:53:39.879Z,6.33
2019-03-10T21:56:09.048Z,7.10
2019-03-10T21:58:38.247Z,10.03
2019-03-10T22:01:07.423Z,6.63
2019-03-10T22:03:36.616Z,7.37
2019-03-10T22:06:05.855Z,9.70
2019-03-10T22:08:35.055Z,11.50
2019-03-10T22:11:04.342Z,8.63
2019-03-10T22:13:33.545Z,11.13
2019-03-10T22:16:02.734Z,6.77
2019-03-10T22:18:31.897Z,8.87
2019-03-10T22:21:01.098Z,7.17
2019-03-10T22:23:30.279Z,6.27
2019-03-10T22:25:59.451Z,6.00
2019-03-10T22:28:28.632Z,7.43
2019-03-10T22:30:57.828Z,9.50
2019-03-10T22:33:27.031Z,13.00
2019-03-10T22:35:56.206Z,12.23
2019-03-10T22:38:43.481Z,8.60
2019-03-10T22:41:12.659Z,10.33
2019-03-10T22:43:59.861Z,10.70
2019-03-10T22:46:29.040Z,6.90
2019-03-10T22:48:58.209Z,5.87
2019-03-10T22:51:27.386Z,12.87
2019-03-10T22:53:56.548Z,9.80
2019-03-10T22:56:25.734Z,4.33
2019-03-10T22:58:54.904Z,5.93
2019-03-10T23:01:24.126Z,5.37
2019-03-10T23:03:53.265Z,8.30
2019-03-10T23:06:22.445Z,6.27
2019-03-10T23:08:51.627Z,4.80
2019-03-10T23:11:20.813Z,7.40
2019-03-10T23:13:50.021Z,4.87
2019-03-10T23:16:19.181Z,7.20
2019-03-10T23:18:48.349Z,10.37
2019-03-10T23:21:17.526Z,13.10
2019-03-10T23:23:46.703Z,9.70
2019-03-10T23:26:15.901Z,7.23
2019-03-10T23:28:45.086Z,3.60
2019-03-10T23:31:14.249Z,3.80
2019-03-10T23:33:43.422Z,5.83
2019-03-10T23:36:12.595Z,3.93
2019-03-10T23:38:41.795Z,4.23
2019-03-10T23:41:10.966Z,13.50
2019-03-10T23:43:40.140Z,6.47
2019-03-10T23:46:09.310Z,9.33
2019-03-10T23:48:38.496Z,8.23
2019-03-10T23:51:07.711Z,8.30
2019-03-10T23:53:36.880Z,7.03
2019-03-10T23:56:06.190Z,6.37
2019-03-10T23:58:35.391Z,8.83
